sensor_id;sensor_type;location;lat;lon;timestamp;temperature;humidity
15483;DHT22;7843;50.330;7.312;2022-09-17T00:01:05;9.80;98.80
15483;DHT22;7843;50.330;7.312;2022-09-17T00:03:33;9.80;98.70
15483;DHT22;7843;50.330;7.312;2022-09-17T00:06:05;9.80;98.80
15483;DHT22;7843;50.330;7.312;2022-09-17T00:08:33;9.70;99.10
15483;DHT22;7843;50.330;7.312;2022-09-17T00:11:10;9.70;99.10
15483;DHT22;7843;50.330;7.312;2022-09-17T00:13:37;9.70;99.00
15483;DHT22;7843;50.330;7.312;2022-09-17T00:16:04;9.70;99.00
15483;DHT22;7843;50.330;7.312;2022-09-17T00:18:31;9.70;99.30
15483;DHT22;7843;50.330;7.312;2022-09-17T00:20:58;9.60;99.10
15483;DHT22;7843;50.330;7.312;2022-09-17T00:23:24;9.60;99.20
15483;DHT22;7843;50.330;7.312;2022-09-17T00:25:51;9.60;99.30
15483;DHT22;7843;50.330;7.312;2022-09-17T00:28:18;9.60;99.70
15483;DHT22;7843;50.330;7.312;2022-09-17T00:30:45;9.60;99.50
15483;DHT22;7843;50.330;7.312;2022-09-17T00:33:14;9.60;99.50
15483;DHT22;7843;50.330;7.312;2022-09-17T00:35:41;9.60;99.60
15483;DHT22;7843;50.330;7.312;2022-09-17T00:38:08;9.60;99.50
15483;DHT22;7843;50.330;7.312;2022-09-17T00:40:35;9.60;99.50
15483;DHT22;7843;50.330;7.312;2022-09-17T00:43:02;9.60;99.80
15483;DHT22;7843;50.330;7.312;2022-09-17T00:45:29;9.50;99.90
15483;DHT22;7843;50.330;7.312;2022-09-17T00:48:00;9.50;99.90
15483;DHT22;7843;50.330;7.312;2022-09-17T00:53:16;9.50;99.90
15483;DHT22;7843;50.330;7.312;2022-09-17T00:56:13;9.50;99.90
15483;DHT22;7843;50.330;7.312;2022-09-17T00:58:41;9.50;99.90
15483;DHT22;7843;50.330;7.312;2022-09-17T01:01:08;9.60;99.90
15483;DHT22;7843;50.330;7.312;2022-09-17T01:03:34;9.70;99.80
15483;DHT22;7843;50.330;7.312;2022-09-17T01:06:33;9.80;99.80
15483;DHT22;7843;50.330;7.312;2022-09-17T01:12:22;9.90;99.70
15483;DHT22;7843;50.330;7.312;2022-09-17T01:15:01;9.90;99.60
15483;DHT22;7843;50.330;7.312;2022-09-17T01:20:54;10.00;99.90
15483;DHT22;7843;50.330;7.312;2022-09-17T01:31:51;10.10;99.80
15483;DHT22;7843;50.330;7.312;2022-09-17T01:39:55;10.10;99.60
15483;DHT22;7843;50.330;7.312;2022-09-17T01:45:18;10.20;99.30
15483;DHT22;7843;50.330;7.312;2022-09-17T01:47:50;10.20;99.10
15483;DHT22;7843;50.330;7.312;2022-09-17T01:50:22;10.20;99.40
15483;DHT22;7843;50.330;7.312;2022-09-17T01:52:53;10.30;98.80
15483;DHT22;7843;50.330;7.312;2022-09-17T01:55:23;10.30;98.70
15483;DHT22;7843;50.330;7.312;2022-09-17T01:58:04;10.30;98.70
15483;DHT22;7843;50.330;7.312;2022-09-17T02:00:34;10.30;99.20
15483;DHT22;7843;50.330;7.312;2022-09-17T02:03:23;10.40;98.70
15483;DHT22;7843;50.330;7.312;2022-09-17T02:09:00;10.40;99.10
15483;DHT22;7843;50.330;7.312;2022-09-17T02:11:28;10.50;99.20
15483;DHT22;7843;50.330;7.312;2022-09-17T02:13:59;10.50;98.90
15483;DHT22;7843;50.330;7.312;2022-09-17T02:16:31;10.50;99.20
15483;DHT22;7843;50.330;7.312;2022-09-17T02:19:20;10.60;99.10
15483;DHT22;7843;50.330;7.312;2022-09-17T02:22:36;10.60;98.90
15483;DHT22;7843;50.330;7.312;2022-09-17T02:25:00;10.60;98.60
15483;DHT22;7843;50.330;7.312;2022-09-17T02:27:50;10.60;98.90
15483;DHT22;7843;50.330;7.312;2022-09-17T02:30:17;10.50;99.20
15483;DHT22;7843;50.330;7.312;2022-09-17T02:32:43;10.50;99.60
15483;DHT22;7843;50.330;7.312;2022-09-17T02:35:10;10.50;99.50
15483;DHT22;7843;50.330;7.312;2022-09-17T02:37:40;10.40;99.70
15483;DHT22;7843;50.330;7.312;2022-09-17T02:40:12;10.40;99.90
15483;DHT22;7843;50.330;7.312;2022-09-17T02:43:21;10.40;99.90
15483;DHT22;7843;50.330;7.312;2022-09-17T02:55:02;10.20;99.90
15483;DHT22;7843;50.330;7.312;2022-09-17T02:57:44;10.10;99.90
15483;DHT22;7843;50.330;7.312;2022-09-17T03:00:15;10.10;99.90
15483;DHT22;7843;50.330;7.312;2022-09-17T03:03:07;10.10;99.90
15483;DHT22;7843;50.330;7.312;2022-09-17T03:05:36;10.10;99.90
15483;DHT22;7843;50.330;7.312;2022-09-17T03:08:07;10.10;99.90
15483;DHT22;7843;50.330;7.312;2022-09-17T03:10:34;10.10;99.90
15483;DHT22;7843;50.330;7.312;2022-09-17T03:13:01;10.10;99.90
15483;DHT22;7843;50.330;7.312;2022-09-17T03:15:28;10.20;99.90
15483;DHT22;7843;50.330;7.312;2022-09-17T03:17:55;10.20;99.90
15483;DHT22;7843;50.330;7.312;2022-09-17T03:20:22;10.20;99.90
15483;DHT22;7843;50.330;7.312;2022-09-17T03:22:50;10.20;99.90
15483;DHT22;7843;50.330;7.312;2022-09-17T03:25:17;10.20;99.90
15483;DHT22;7843;50.330;7.312;2022-09-17T03:27:44;10.20;99.90
15483;DHT22;7843;50.330;7.312;2022-09-17T03:30:11;10.30;99.90
15483;DHT22;7843;50.330;7.312;2022-09-17T03:32:39;10.40;99.90
15483;DHT22;7843;50.330;7.312;2022-09-17T03:35:06;10.50;99.90
15483;DHT22;7843;50.330;7.312;2022-09-17T03:37:33;10.50;99.90
15483;DHT22;7843;50.330;7.312;2022-09-17T03:40:00;10.50;99.90
15483;DHT22;7843;50.330;7.312;2022-09-17T03:42:27;10.50;99.90
15483;DHT22;7843;50.330;7.312;2022-09-17T03:44:53;10.50;99.90
15483;DHT22;7843;50.330;7.312;2022-09-17T03:47:20;10.50;99.90
15483;DHT22;7843;50.330;7.312;2022-09-17T03:49:47;10.50;99.90
15483;DHT22;7843;50.330;7.312;2022-09-17T03:52:13;10.40;99.90
15483;DHT22;7843;50.330;7.312;2022-09-17T03:54:40;10.40;99.90
15483;DHT22;7843;50.330;7.312;2022-09-17T03:57:07;10.30;99.90
15483;DHT22;7843;50.330;7.312;2022-09-17T03:59:33;10.40;99.90
15483;DHT22;7843;50.330;7.312;2022-09-17T04:02:00;10.40;99.90
15483;DHT22;7843;50.330;7.312;2022-09-17T04:04:26;10.40;99.90
15483;DHT22;7843;50.330;7.312;2022-09-17T04:06:53;10.40;99.90
15483;DHT22;7843;50.330;7.312;2022-09-17T04:09:20;10.40;99.90
15483;DHT22;7843;50.330;7.312;2022-09-17T04:11:47;10.40;99.90
15483;DHT22;7843;50.330;7.312;2022-09-17T04:14:13;10.40;99.90
15483;DHT22;7843;50.330;7.312;2022-09-17T04:16:40;10.40;99.90
15483;DHT22;7843;50.330;7.312;2022-09-17T04:19:07;10.40;99.90
15483;DHT22;7843;50.330;7.312;2022-09-17T04:21:33;10.40;99.90
15483;DHT22;7843;50.330;7.312;2022-09-17T04:24:00;10.50;99.90
15483;DHT22;7843;50.330;7.312;2022-09-17T04:26:27;10.50;99.90
15483;DHT22;7843;50.330;7.312;2022-09-17T04:28:53;10.60;99.90
15483;DHT22;7843;50.330;7.312;2022-09-17T04:31:20;10.60;99.90
15483;DHT22;7843;50.330;7.312;2022-09-17T04:33:50;10.70;99.90
15483;DHT22;7843;50.330;7.312;2022-09-17T04:36:17;10.70;99.90
15483;DHT22;7843;50.330;7.312;2022-09-17T04:38:46;10.70;99.90
15483;DHT22;7843;50.330;7.312;2022-09-17T04:41:13;10.60;99.90
15483;DHT22;7843;50.330;7.312;2022-09-17T04:43:40;10.70;99.90
15483;DHT22;7843;50.330;7.312;2022-09-17T04:46:06;10.80;99.90
15483;DHT22;7843;50.330;7.312;2022-09-17T04:48:33;10.80;99.90
15483;DHT22;7843;50.330;7.312;2022-09-17T04:51:00;10.80;99.90
15483;DHT22;7843;50.330;7.312;2022-09-17T04:53:26;10.70;99.90
15483;DHT22;7843;50.330;7.312;2022-09-17T04:55:53;10.80;99.90
15483;DHT22;7843;50.330;7.312;2022-09-17T04:58:20;10.80;99.90
15483;DHT22;7843;50.330;7.312;2022-09-17T05:00:47;10.80;99.90
15483;DHT22;7843;50.330;7.312;2022-09-17T05:03:14;10.80;99.90
15483;DHT22;7843;50.330;7.312;2022-09-17T05:05:40;10.80;99.90
15483;DHT22;7843;50.330;7.312;2022-09-17T05:08:07;10.80;99.90
15483;DHT22;7843;50.330;7.312;2022-09-17T05:10:34;10.70;99.90
15483;DHT22;7843;50.330;7.312;2022-09-17T05:13:00;10.60;99.90
15483;DHT22;7843;50.330;7.312;2022-09-17T05:15:27;10.70;99.90
15483;DHT22;7843;50.330;7.312;2022-09-17T05:17:54;10.70;99.90
15483;DHT22;7843;50.330;7.312;2022-09-17T05:20:20;10.70;99.90
15483;DHT22;7843;50.330;7.312;2022-09-17T05:22:49;10.70;99.90
15483;DHT22;7843;50.330;7.312;2022-09-17T05:25:19;10.70;99.90
15483;DHT22;7843;50.330;7.312;2022-09-17T05:27:50;10.70;99.90
15483;DHT22;7843;50.330;7.312;2022-09-17T05:30:17;10.70;99.90
15483;DHT22;7843;50.330;7.312;2022-09-17T05:32:44;10.70;99.90
15483;DHT22;7843;50.330;7.312;2022-09-17T05:35:10;10.80;99.90
15483;DHT22;7843;50.330;7.312;2022-09-17T05:37:37;10.80;99.90
15483;DHT22;7843;50.330;7.312;2022-09-17T05:40:05;10.80;99.90
15483;DHT22;7843;50.330;7.312;2022-09-17T05:42:33;10.90;99.90
15483;DHT22;7843;50.330;7.312;2022-09-17T05:44:59;10.90;99.90
15483;DHT22;7843;50.330;7.312;2022-09-17T05:47:29;10.90;99.90
15483;DHT22;7843;50.330;7.312;2022-09-17T05:49:56;10.90;99.90
15483;DHT22;7843;50.330;7.312;2022-09-17T05:52:26;10.90;99.90
15483;DHT22;7843;50.330;7.312;2022-09-17T05:54:54;10.90;99.90
15483;DHT22;7843;50.330;7.312;2022-09-17T05:57:21;11.00;99.90
15483;DHT22;7843;50.330;7.312;2022-09-17T05:59:48;11.00;99.90
15483;DHT22;7843;50.330;7.312;2022-09-17T06:02:14;11.00;99.90
15483;DHT22;7843;50.330;7.312;2022-09-17T06:04:43;11.10;99.90
15483;DHT22;7843;50.330;7.312;2022-09-17T06:07:09;11.10;99.90
15483;DHT22;7843;50.330;7.312;2022-09-17T06:09:36;11.10;99.90
15483;DHT22;7843;50.330;7.312;2022-09-17T06:12:04;11.20;99.90
15483;DHT22;7843;50.330;7.312;2022-09-17T06:14:31;11.20;99.90
15483;DHT22;7843;50.330;7.312;2022-09-17T06:16:57;11.30;99.90
15483;DHT22;7843;50.330;7.312;2022-09-17T06:19:24;11.30;99.90
15483;DHT22;7843;50.330;7.312;2022-09-17T06:21:50;11.30;99.90
15483;DHT22;7843;50.330;7.312;2022-09-17T06:24:17;11.40;99.80
15483;DHT22;7843;50.330;7.312;2022-09-17T06:26:44;11.30;99.90
15483;DHT22;7843;50.330;7.312;2022-09-17T06:29:10;11.40;99.70
15483;DHT22;7843;50.330;7.312;2022-09-17T06:31:40;11.40;99.70
15483;DHT22;7843;50.330;7.312;2022-09-17T06:34:10;11.40;99.00
15483;DHT22;7843;50.330;7.312;2022-09-17T06:36:37;11.30;99.50
15483;DHT22;7843;50.330;7.312;2022-09-17T06:39:03;11.30;99.30
15483;DHT22;7843;50.330;7.312;2022-09-17T06:41:30;11.30;99.00
15483;DHT22;7843;50.330;7.312;2022-09-17T06:43:57;11.20;99.00
15483;DHT22;7843;50.330;7.312;2022-09-17T06:46:24;11.20;98.80
15483;DHT22;7843;50.330;7.312;2022-09-17T06:48:51;11.20;98.80
15483;DHT22;7843;50.330;7.312;2022-09-17T06:51:17;11.30;99.10
15483;DHT22;7843;50.330;7.312;2022-09-17T06:53:44;11.40;99.10
15483;DHT22;7843;50.330;7.312;2022-09-17T06:56:10;11.50;99.00
15483;DHT22;7843;50.330;7.312;2022-09-17T06:58:37;11.60;98.40
15483;DHT22;7843;50.330;7.312;2022-09-17T07:01:05;11.60;97.80
15483;DHT22;7843;50.330;7.312;2022-09-17T07:03:31;11.70;98.10
15483;DHT22;7843;50.330;7.312;2022-09-17T07:05:59;11.80;97.70
15483;DHT22;7843;50.330;7.312;2022-09-17T07:08:25;12.00;97.70
15483;DHT22;7843;50.330;7.312;2022-09-17T07:10:56;12.10;97.30
15483;DHT22;7843;50.330;7.312;2022-09-17T07:13:23;12.20;96.10
15483;DHT22;7843;50.330;7.312;2022-09-17T07:15:59;12.30;95.40
15483;DHT22;7843;50.330;7.312;2022-09-17T07:18:26;12.40;95.90
15483;DHT22;7843;50.330;7.312;2022-09-17T07:21:01;12.50;93.80
15483;DHT22;7843;50.330;7.312;2022-09-17T07:23:29;12.50;92.80
15483;DHT22;7843;50.330;7.312;2022-09-17T07:25:59;12.60;92.70
15483;DHT22;7843;50.330;7.312;2022-09-17T07:28:26;12.60;93.60
15483;DHT22;7843;50.330;7.312;2022-09-17T07:30:54;12.70;94.10
15483;DHT22;7843;50.330;7.312;2022-09-17T07:33:23;12.80;93.20
15483;DHT22;7843;50.330;7.312;2022-09-17T07:36:01;12.90;94.00
15483;DHT22;7843;50.330;7.312;2022-09-17T07:38:29;13.00;92.90
15483;DHT22;7843;50.330;7.312;2022-09-17T07:40:58;13.00;92.80
15483;DHT22;7843;50.330;7.312;2022-09-17T07:43:26;13.10;91.60
15483;DHT22;7843;50.330;7.312;2022-09-17T07:45:55;13.20;91.70
15483;DHT22;7843;50.330;7.312;2022-09-17T07:48:23;13.40;92.00
15483;DHT22;7843;50.330;7.312;2022-09-17T07:50:49;13.50;91.20
15483;DHT22;7843;50.330;7.312;2022-09-17T07:53:16;13.60;91.20
15483;DHT22;7843;50.330;7.312;2022-09-17T07:55:57;13.70;90.70
15483;DHT22;7843;50.330;7.312;2022-09-17T07:58:28;13.80;90.60
15483;DHT22;7843;50.330;7.312;2022-09-17T08:01:03;13.80;89.40
15483;DHT22;7843;50.330;7.312;2022-09-17T08:03:30;13.80;88.30
15483;DHT22;7843;50.330;7.312;2022-09-17T08:06:07;13.70;89.50
15483;DHT22;7843;50.330;7.312;2022-09-17T08:08:35;13.70;89.20
15483;DHT22;7843;50.330;7.312;2022-09-17T08:11:09;13.60;88.00
15483;DHT22;7843;50.330;7.312;2022-09-17T08:13:36;13.60;87.90
15483;DHT22;7843;50.330;7.312;2022-09-17T08:16:05;13.60;87.60
15483;DHT22;7843;50.330;7.312;2022-09-17T08:18:33;13.60;87.70
15483;DHT22;7843;50.330;7.312;2022-09-17T08:21:04;13.50;88.60
15483;DHT22;7843;50.330;7.312;2022-09-17T08:23:34;13.60;88.80
15483;DHT22;7843;50.330;7.312;2022-09-17T08:26:02;13.60;88.50
15483;DHT22;7843;50.330;7.312;2022-09-17T08:28:30;13.60;89.00
15483;DHT22;7843;50.330;7.312;2022-09-17T08:31:07;13.60;89.20
15483;DHT22;7843;50.330;7.312;2022-09-17T08:33:36;13.70;88.70
15483;DHT22;7843;50.330;7.312;2022-09-17T08:36:05;13.70;87.90
15483;DHT22;7843;50.330;7.312;2022-09-17T08:38:33;13.60;87.80
15483;DHT22;7843;50.330;7.312;2022-09-17T08:46:56;13.40;88.20
15483;DHT22;7843;50.330;7.312;2022-09-17T08:49:35;13.40;88.90
15483;DHT22;7843;50.330;7.312;2022-09-17T08:55:41;13.30;88.80
15483;DHT22;7843;50.330;7.312;2022-09-17T09:01:11;13.20;89.10
15483;DHT22;7843;50.330;7.312;2022-09-17T09:06:43;13.20;89.20
15483;DHT22;7843;50.330;7.312;2022-09-17T09:09:17;13.20;89.90
15483;DHT22;7843;50.330;7.312;2022-09-17T09:11:48;13.20;88.80
15483;DHT22;7843;50.330;7.312;2022-09-17T09:14:20;13.20;89.10
15483;DHT22;7843;50.330;7.312;2022-09-17T09:16:48;13.40;89.10
15483;DHT22;7843;50.330;7.312;2022-09-17T09:19:42;13.50;90.00
15483;DHT22;7843;50.330;7.312;2022-09-17T09:25:10;13.50;89.10
15483;DHT22;7843;50.330;7.312;2022-09-17T09:28:24;13.50;90.20
15483;DHT22;7843;50.330;7.312;2022-09-17T09:33:40;13.80;88.20
15483;DHT22;7843;50.330;7.312;2022-09-17T09:36:13;14.10;86.20
15483;DHT22;7843;50.330;7.312;2022-09-17T09:38:53;14.30;85.20
15483;DHT22;7843;50.330;7.312;2022-09-17T09:41:41;14.30;86.20
15483;DHT22;7843;50.330;7.312;2022-09-17T09:44:11;14.20;83.30
15483;DHT22;7843;50.330;7.312;2022-09-17T09:49:40;13.80;88.10
15483;DHT22;7843;50.330;7.312;2022-09-17T09:57:51;13.60;90.40
15483;DHT22;7843;50.330;7.312;2022-09-17T10:00:26;14.00;88.50
15483;DHT22;7843;50.330;7.312;2022-09-17T10:03:01;14.20;87.10
15483;DHT22;7843;50.330;7.312;2022-09-17T10:05:31;14.20;87.50
15483;DHT22;7843;50.330;7.312;2022-09-17T10:07:58;14.00;88.90
15483;DHT22;7843;50.330;7.312;2022-09-17T10:10:25;13.90;89.60
15483;DHT22;7843;50.330;7.312;2022-09-17T10:13:05;13.80;90.40
15483;DHT22;7843;50.330;7.312;2022-09-17T10:15:31;13.80;91.00
15483;DHT22;7843;50.330;7.312;2022-09-17T10:18:19;14.00;90.50
15483;DHT22;7843;50.330;7.312;2022-09-17T10:20:49;14.10;91.70
15483;DHT22;7843;50.330;7.312;2022-09-17T10:23:16;14.30;91.50
15483;DHT22;7843;50.330;7.312;2022-09-17T10:25:44;14.40;87.10
15483;DHT22;7843;50.330;7.312;2022-09-17T10:30:57;14.50;83.80
15483;DHT22;7843;50.330;7.312;2022-09-17T10:33:29;14.50;84.50
15483;DHT22;7843;50.330;7.312;2022-09-17T10:36:08;14.60;86.00
15483;DHT22;7843;50.330;7.312;2022-09-17T10:38:44;14.70;84.20
15483;DHT22;7843;50.330;7.312;2022-09-17T10:41:21;14.80;83.20
15483;DHT22;7843;50.330;7.312;2022-09-17T10:43:50;15.00;82.70
15483;DHT22;7843;50.330;7.312;2022-09-17T10:46:26;15.20;82.40
15483;DHT22;7843;50.330;7.312;2022-09-17T10:49:35;15.20;80.60
15483;DHT22;7843;50.330;7.312;2022-09-17T10:52:10;15.10;80.00
15483;DHT22;7843;50.330;7.312;2022-09-17T11:00:18;15.20;80.40
15483;DHT22;7843;50.330;7.312;2022-09-17T11:03:07;15.40;80.90
15483;DHT22;7843;50.330;7.312;2022-09-17T11:11:05;15.70;78.20
15483;DHT22;7843;50.330;7.312;2022-09-17T11:13:49;15.70;77.00
15483;DHT22;7843;50.330;7.312;2022-09-17T11:21:48;16.00;76.30
15483;DHT22;7843;50.330;7.312;2022-09-17T11:27:16;15.80;76.90
15483;DHT22;7843;50.330;7.312;2022-09-17T11:29:54;15.60;77.20
15483;DHT22;7843;50.330;7.312;2022-09-17T11:41:18;15.40;78.00
15483;DHT22;7843;50.330;7.312;2022-09-17T11:46:26;15.80;77.20
15483;DHT22;7843;50.330;7.312;2022-09-17T11:51:56;16.20;78.80
15483;DHT22;7843;50.330;7.312;2022-09-17T11:54:25;16.40;76.10
15483;DHT22;7843;50.330;7.312;2022-09-17T11:57:04;16.40;74.90
15483;DHT22;7843;50.330;7.312;2022-09-17T12:02:26;16.60;73.70
15483;DHT22;7843;50.330;7.312;2022-09-17T12:04:59;16.50;75.50
15483;DHT22;7843;50.330;7.312;2022-09-17T12:07:49;16.40;75.50
15483;DHT22;7843;50.330;7.312;2022-09-17T12:16:26;16.50;77.10
15483;DHT22;7843;50.330;7.312;2022-09-17T12:21:48;16.80;76.40
15483;DHT22;7843;50.330;7.312;2022-09-17T12:24:23;17.40;73.60
15483;DHT22;7843;50.330;7.312;2022-09-17T12:27:08;17.80;72.80
15483;DHT22;7843;50.330;7.312;2022-09-17T12:32:43;17.80;72.60
15483;DHT22;7843;50.330;7.312;2022-09-17T12:35:32;17.70;72.50
15483;DHT22;7843;50.330;7.312;2022-09-17T12:40:57;17.30;70.80
15483;DHT22;7843;50.330;7.312;2022-09-17T12:43:44;17.60;72.00
15483;DHT22;7843;50.330;7.312;2022-09-17T12:54:50;16.60;70.90
15483;DHT22;7843;50.330;7.312;2022-09-17T13:00:15;16.00;73.40
15483;DHT22;7843;50.330;7.312;2022-09-17T13:02:54;16.00;78.40
15483;DHT22;7843;50.330;7.312;2022-09-17T13:16:52;16.50;74.60
15483;DHT22;7843;50.330;7.312;2022-09-17T13:19:35;16.30;74.60
15483;DHT22;7843;50.330;7.312;2022-09-17T13:22:19;16.30;75.50
15483;DHT22;7843;50.330;7.312;2022-09-17T13:24:59;16.20;75.30
15483;DHT22;7843;50.330;7.312;2022-09-17T13:27:28;16.10;74.80
15483;DHT22;7843;50.330;7.312;2022-09-17T13:37:53;14.70;88.30
15483;DHT22;7843;50.330;7.312;2022-09-17T13:42:55;14.30;91.00
15483;DHT22;7843;50.330;7.312;2022-09-17T13:45:23;14.40;91.90
15483;DHT22;7843;50.330;7.312;2022-09-17T13:48:02;14.60;92.30
15483;DHT22;7843;50.330;7.312;2022-09-17T13:50:34;14.60;92.00
15483;DHT22;7843;50.330;7.312;2022-09-17T13:53:16;14.60;91.70
15483;DHT22;7843;50.330;7.312;2022-09-17T13:55:49;14.60;94.20
15483;DHT22;7843;50.330;7.312;2022-09-17T14:13:50;13.60;90.60
15483;DHT22;7843;50.330;7.312;2022-09-17T14:19:45;13.40;90.10
15483;DHT22;7843;50.330;7.312;2022-09-17T14:22:24;13.30;90.10
15483;DHT22;7843;50.330;7.312;2022-09-17T14:24:52;13.30;90.30
15483;DHT22;7843;50.330;7.312;2022-09-17T14:27:39;13.40;91.30
15483;DHT22;7843;50.330;7.312;2022-09-17T14:33:06;13.70;92.50
15483;DHT22;7843;50.330;7.312;2022-09-17T14:38:20;13.60;90.40
15483;DHT22;7843;50.330;7.312;2022-09-17T14:41:00;13.40;91.00
15483;DHT22;7843;50.330;7.312;2022-09-17T14:43:42;13.40;91.00
15483;DHT22;7843;50.330;7.312;2022-09-17T14:46:19;13.40;92.10
15483;DHT22;7843;50.330;7.312;2022-09-17T14:48:47;13.40;90.50
15483;DHT22;7843;50.330;7.312;2022-09-17T14:54:12;14.30;89.80
15483;DHT22;7843;50.330;7.312;2022-09-17T15:02:22;15.70;83.30
15483;DHT22;7843;50.330;7.312;2022-09-17T15:04:52;15.60;81.40
15483;DHT22;7843;50.330;7.312;2022-09-17T15:07:20;15.50;83.20
15483;DHT22;7843;50.330;7.312;2022-09-17T15:09:47;15.70;81.80
15483;DHT22;7843;50.330;7.312;2022-09-17T15:12:16;15.80;79.50
15483;DHT22;7843;50.330;7.312;2022-09-17T15:14:46;15.60;79.00
15483;DHT22;7843;50.330;7.312;2022-09-17T15:17:15;15.50;79.20
15483;DHT22;7843;50.330;7.312;2022-09-17T15:19:50;15.30;81.90
15483;DHT22;7843;50.330;7.312;2022-09-17T15:22:35;15.00;81.60
15483;DHT22;7843;50.330;7.312;2022-09-17T15:25:09;14.70;81.50
15483;DHT22;7843;50.330;7.312;2022-09-17T15:27:41;14.60;84.10
15483;DHT22;7843;50.330;7.312;2022-09-17T15:30:19;14.50;83.90
15483;DHT22;7843;50.330;7.312;2022-09-17T15:32:57;14.60;83.20
15483;DHT22;7843;50.330;7.312;2022-09-17T15:35:28;14.60;82.20
15483;DHT22;7843;50.330;7.312;2022-09-17T15:38:19;14.50;82.30
15483;DHT22;7843;50.330;7.312;2022-09-17T15:40:48;14.40;83.10
15483;DHT22;7843;50.330;7.312;2022-09-17T15:43:26;14.30;82.20
15483;DHT22;7843;50.330;7.312;2022-09-17T15:45:54;14.10;84.30
15483;DHT22;7843;50.330;7.312;2022-09-17T15:50:55;13.80;82.90
15483;DHT22;7843;50.330;7.312;2022-09-17T15:53:28;13.70;83.90
15483;DHT22;7843;50.330;7.312;2022-09-17T15:58:31;13.60;85.10
15483;DHT22;7843;50.330;7.312;2022-09-17T16:03:59;13.40;85.10
15483;DHT22;7843;50.330;7.312;2022-09-17T16:08:59;13.40;85.60
15483;DHT22;7843;50.330;7.312;2022-09-17T16:11:29;13.40;86.90
15483;DHT22;7843;50.330;7.312;2022-09-17T16:13:58;13.40;86.20
15483;DHT22;7843;50.330;7.312;2022-09-17T16:16:36;13.30;86.40
15483;DHT22;7843;50.330;7.312;2022-09-17T16:19:03;13.40;86.70
15483;DHT22;7843;50.330;7.312;2022-09-17T16:21:32;13.50;87.40
15483;DHT22;7843;50.330;7.312;2022-09-17T16:23:58;13.60;88.90
15483;DHT22;7843;50.330;7.312;2022-09-17T16:26:30;13.60;86.80
15483;DHT22;7843;50.330;7.312;2022-09-17T16:29:02;13.70;86.60
15483;DHT22;7843;50.330;7.312;2022-09-17T16:31:29;13.80;87.60
15483;DHT22;7843;50.330;7.312;2022-09-17T16:33:56;13.80;88.00
15483;DHT22;7843;50.330;7.312;2022-09-17T16:36:23;13.80;88.00
15483;DHT22;7843;50.330;7.312;2022-09-17T16:38:50;13.80;86.60
15483;DHT22;7843;50.330;7.312;2022-09-17T16:41:17;13.80;88.00
15483;DHT22;7843;50.330;7.312;2022-09-17T16:43:43;13.80;86.90
15483;DHT22;7843;50.330;7.312;2022-09-17T16:46:10;13.80;87.80
15483;DHT22;7843;50.330;7.312;2022-09-17T16:48:38;13.80;88.80
15483;DHT22;7843;50.330;7.312;2022-09-17T16:51:07;13.20;90.50
15483;DHT22;7843;50.330;7.312;2022-09-17T16:53:34;12.80;92.20
15483;DHT22;7843;50.330;7.312;2022-09-17T16:56:05;12.40;94.70
15483;DHT22;7843;50.330;7.312;2022-09-17T16:58:32;12.10;97.30
15483;DHT22;7843;50.330;7.312;2022-09-17T17:03:33;11.80;98.30
15483;DHT22;7843;50.330;7.312;2022-09-17T17:06:00;11.60;98.80
15483;DHT22;7843;50.330;7.312;2022-09-17T17:08:27;11.40;98.70
15483;DHT22;7843;50.330;7.312;2022-09-17T17:10:54;11.30;99.10
15483;DHT22;7843;50.330;7.312;2022-09-17T17:13:21;11.10;99.80
15483;DHT22;7843;50.330;7.312;2022-09-17T17:15:47;11.00;99.90
15483;DHT22;7843;50.330;7.312;2022-09-17T17:18:14;10.80;99.90
15483;DHT22;7843;50.330;7.312;2022-09-17T17:20:41;10.80;99.90
15483;DHT22;7843;50.330;7.312;2022-09-17T17:23:07;10.60;99.90
15483;DHT22;7843;50.330;7.312;2022-09-17T17:25:34;10.60;99.90
15483;DHT22;7843;50.330;7.312;2022-09-17T17:28:01;10.50;99.90
15483;DHT22;7843;50.330;7.312;2022-09-17T17:30:27;10.50;99.90
15483;DHT22;7843;50.330;7.312;2022-09-17T17:32:57;10.40;99.90
15483;DHT22;7843;50.330;7.312;2022-09-17T17:35:25;10.50;99.90
15483;DHT22;7843;50.330;7.312;2022-09-17T17:37:52;10.40;99.90
15483;DHT22;7843;50.330;7.312;2022-09-17T17:40:19;10.40;99.90
15483;DHT22;7843;50.330;7.312;2022-09-17T17:42:51;10.40;99.90
15483;DHT22;7843;50.330;7.312;2022-09-17T17:45:17;10.30;99.90
15483;DHT22;7843;50.330;7.312;2022-09-17T17:47:44;10.30;99.90
15483;DHT22;7843;50.330;7.312;2022-09-17T17:50:11;10.20;99.90
15483;DHT22;7843;50.330;7.312;2022-09-17T17:52:37;10.20;99.90
15483;DHT22;7843;50.330;7.312;2022-09-17T17:55:06;10.20;99.90
15483;DHT22;7843;50.330;7.312;2022-09-17T17:57:32;10.20;99.90
15483;DHT22;7843;50.330;7.312;2022-09-17T17:59:59;10.30;99.90
15483;DHT22;7843;50.330;7.312;2022-09-17T18:02:26;10.20;99.90
15483;DHT22;7843;50.330;7.312;2022-09-17T18:04:53;10.20;99.90
15483;DHT22;7843;50.330;7.312;2022-09-17T18:07:19;10.20;99.90
15483;DHT22;7843;50.330;7.312;2022-09-17T18:09:46;10.30;99.90
15483;DHT22;7843;50.330;7.312;2022-09-17T18:12:13;10.40;99.90
15483;DHT22;7843;50.330;7.312;2022-09-17T18:14:40;10.50;99.90
15483;DHT22;7843;50.330;7.312;2022-09-17T18:17:06;10.50;99.90
15483;DHT22;7843;50.330;7.312;2022-09-17T18:19:33;10.60;99.90
15483;DHT22;7843;50.330;7.312;2022-09-17T18:22:00;10.60;99.90
15483;DHT22;7843;50.330;7.312;2022-09-17T18:24:27;10.50;99.90
15483;DHT22;7843;50.330;7.312;2022-09-17T18:26:53;10.50;99.90
15483;DHT22;7843;50.330;7.312;2022-09-17T18:29:20;10.50;99.90
15483;DHT22;7843;50.330;7.312;2022-09-17T18:31:47;10.50;99.90
15483;DHT22;7843;50.330;7.312;2022-09-17T18:34:15;10.50;99.90
15483;DHT22;7843;50.330;7.312;2022-09-17T18:36:42;10.50;99.90
15483;DHT22;7843;50.330;7.312;2022-09-17T18:39:14;10.60;99.90
15483;DHT22;7843;50.330;7.312;2022-09-17T18:42:01;10.60;99.90
15483;DHT22;7843;50.330;7.312;2022-09-17T18:44:28;10.60;99.90
15483;DHT22;7843;50.330;7.312;2022-09-17T18:46:55;10.70;99.90
15483;DHT22;7843;50.330;7.312;2022-09-17T18:49:21;10.70;99.90
15483;DHT22;7843;50.330;7.312;2022-09-17T18:51:48;10.70;99.90
15483;DHT22;7843;50.330;7.312;2022-09-17T18:54:15;10.60;99.90
15483;DHT22;7843;50.330;7.312;2022-09-17T18:56:41;10.50;99.90
15483;DHT22;7843;50.330;7.312;2022-09-17T18:59:08;10.40;99.90
15483;DHT22;7843;50.330;7.312;2022-09-17T19:01:35;10.40;99.90
15483;DHT22;7843;50.330;7.312;2022-09-17T19:04:02;10.40;99.90
15483;DHT22;7843;50.330;7.312;2022-09-17T19:06:29;10.40;99.90
15483;DHT22;7843;50.330;7.312;2022-09-17T19:09:01;10.40;99.90
15483;DHT22;7843;50.330;7.312;2022-09-17T19:11:28;10.50;99.90
15483;DHT22;7843;50.330;7.312;2022-09-17T19:13:55;10.50;99.90
15483;DHT22;7843;50.330;7.312;2022-09-17T19:16:22;10.50;99.90
15483;DHT22;7843;50.330;7.312;2022-09-17T19:18:49;10.40;99.90
15483;DHT22;7843;50.330;7.312;2022-09-17T19:21:18;10.30;99.90
15483;DHT22;7843;50.330;7.312;2022-09-17T19:23:48;10.20;99.90
15483;DHT22;7843;50.330;7.312;2022-09-17T19:26:24;10.20;99.90
15483;DHT22;7843;50.330;7.312;2022-09-17T19:28:56;10.20;99.90
15483;DHT22;7843;50.330;7.312;2022-09-17T19:31:23;10.30;99.90